createdAt,value
2018-06-12T00:02:20.373Z,5.37
2018-06-12T00:08:15.361Z,3.69
2018-06-12T00:14:10.393Z,3.19
2018-06-12T00:20:05.443Z,4.18
2018-06-12T00:26:00.358Z,3.33
2018-06-12T00:31:55.583Z,4.03
2018-06-12T00:37:50.417Z,3.17
2018-06-12T00:43:45.418Z,3.58
2018-06-12T00:49:40.436Z,2.91
2018-06-12T00:55:35.433Z,3.4
2018-06-12T01:01:30.437Z,3.39
2018-06-12T01:07:25.415Z,2.5
2018-06-12T01:19:15.466Z,3.21
2018-06-12T01:25:10.809Z,2.9
2018-06-12T01:31:05.431Z,2.83
2018-06-12T01:37:00.419Z,3.05
2018-06-12T01:42:55.451Z,2.65
2018-06-12T01:48:50.442Z,2.77
2018-06-12T01:54:45.473Z,2.53
2018-06-12T02:00:40.455Z,3.53
2018-06-12T02:06:35.454Z,5.97
2018-06-12T02:12:30.504Z,4.35
2018-06-12T02:18:25.431Z,4.92
2018-06-12T02:24:20.453Z,3.3
2018-06-12T02:30:15.502Z,4.49
2018-06-12T02:36:10.547Z,3.67
2018-06-12T02:42:05.532Z,3.84
2018-06-12T02:48:00.461Z,5.67
2018-06-12T02:53:55.500Z,3.72
2018-06-12T02:59:50.491Z,3.82
2018-06-12T03:05:45.499Z,3.42
2018-06-12T03:11:40.641Z,6.46
2018-06-12T03:17:35.465Z,4.64
2018-06-12T03:23:30.525Z,5.06
2018-06-12T03:29:25.511Z,4.71
2018-06-12T03:35:20.470Z,3.56
2018-06-12T03:41:15.582Z,4.66
2018-06-12T03:47:10.511Z,4.43
2018-06-12T03:53:05.622Z,3.53
2018-06-12T03:59:00.481Z,3.71
2018-06-12T04:04:55.500Z,3.77
2018-06-12T04:10:50.506Z,3.78
2018-06-12T04:16:45.507Z,4.1
2018-06-12T04:22:40.594Z,4.44
2018-06-12T04:28:35.586Z,4.04
2018-06-12T04:34:30.521Z,4.76
2018-06-12T04:40:25.602Z,5.37
2018-06-12T04:46:20.519Z,5.22
2018-06-12T04:52:15.571Z,4.89
2018-06-12T04:58:10.593Z,4.95
2018-06-12T05:04:05.551Z,6.1
2018-06-12T05:10:00.537Z,5.99
2018-06-12T05:15:55.551Z,7.01
2018-06-12T05:21:50.605Z,7.34
2018-06-12T05:27:45.576Z,6.68
2018-06-12T05:33:40.596Z,4.46
2018-06-12T05:39:35.597Z,4.54
2018-06-12T05:45:30.589Z,4.31
2018-06-12T05:51:25.648Z,4.96
2018-06-12T05:57:20.605Z,6.6
2018-06-12T06:03:15.609Z,7.92
2018-06-12T06:09:10.607Z,10.37
2018-06-12T06:15:05.622Z,10.85
2018-06-12T06:21:00.571Z,12.63
2018-06-12T06:26:55.612Z,5.83
2018-06-12T06:32:50.668Z,5.83
2018-06-12T06:38:45.581Z,12.51
2018-06-12T06:44:40.608Z,4.58
2018-06-12T06:50:35.607Z,6.12
2018-06-12T06:56:30.649Z,4.83
2018-06-12T07:02:25.636Z,5.71
2018-06-12T07:08:20.662Z,6.79
2018-06-12T07:14:15.845Z,7.38
2018-06-12T07:20:11.053Z,4.33
2018-06-12T07:26:05.633Z,5.89
2018-06-12T07:32:00.625Z,4.04
2018-06-12T07:37:55.609Z,5.35
2018-06-12T07:43:50.632Z,4.09
2018-06-12T07:49:45.661Z,2.55
2018-06-12T07:55:40.680Z,2.95
2018-06-12T08:01:35.645Z,5.02
2018-06-12T08:07:30.655Z,3.54
2018-06-12T08:13:25.696Z,3.93
2018-06-12T08:19:20.684Z,2.51
2018-06-12T08:25:15.670Z,2.72
2018-06-12T08:31:10.668Z,2.77
2018-06-12T08:37:05.682Z,2.66
2018-06-12T08:43:00.693Z,3.98
2018-06-12T08:48:55.656Z,3.52
2018-06-12T08:54:50.726Z,1.83
2018-06-12T09:00:45.693Z,1.91
2018-06-12T09:06:40.741Z,2.79
2018-06-12T09:12:35.667Z,2.08
2018-06-12T09:18:30.709Z,1.87
2018-06-12T09:24:25.714Z,1.84
2018-06-12T09:30:20.838Z,2.07
2018-06-12T09:36:15.705Z,1.97
2018-06-12T09:42:10.727Z,1.85
2018-06-12T09:48:05.717Z,2.52
2018-06-12T09:54:00.718Z,2.16
2018-06-12T09:59:55.706Z,2.09
2018-06-12T10:05:50.724Z,1.77
2018-06-12T10:11:45.780Z,3.36
2018-06-12T10:17:40.717Z,2.61
2018-06-12T10:23:35.808Z,2.01
2018-06-12T10:29:30.718Z,1.94
2018-06-12T10:35:25.710Z,1.94
2018-06-12T10:41:20.806Z,5.99
2018-06-12T10:47:15.731Z,4.67
2018-06-12T10:53:10.769Z,2.94
2018-06-12T10:59:05.817Z,3.18
2018-06-12T11:05:00.774Z,3.26
2018-06-12T11:10:55.887Z,14.25
2018-06-12T11:16:54.853Z,9.67
2018-06-12T11:22:45.758Z,14.89
2018-06-12T11:28:40.785Z,48.43
2018-06-12T11:34:35.820Z,76.15
2018-06-12T11:40:30.866Z,103.16
2018-06-12T11:46:25.793Z,55.41
2018-06-12T11:52:20.823Z,6.11
2018-06-12T11:58:15.797Z,5.13
2018-06-12T12:04:17.601Z,51.18
2018-06-12T12:10:09.851Z,28.57
2018-06-12T12:16:01.785Z,68.46
2018-06-12T12:21:55.770Z,55.15
2018-06-12T12:27:50.826Z,61.12
2018-06-12T12:33:45.822Z,48.01
2018-06-12T12:39:41.826Z,32.09
2018-06-12T12:45:39.921Z,39.28
2018-06-12T12:51:30.819Z,34.07
2018-06-12T12:57:25.838Z,47.88
2018-06-12T13:03:20.839Z,20.15
2018-06-12T13:09:15.890Z,20.97
2018-06-12T13:15:10.941Z,29.77
2018-06-12T13:21:05.827Z,23.65
2018-06-12T13:27:00.849Z,27.54
2018-06-12T13:32:55.819Z,20.75
2018-06-12T13:38:50.872Z,8.92
2018-06-12T13:44:45.833Z,11.87
2018-06-12T13:56:36.329Z,7.75
2018-06-12T14:02:30.921Z,12.08
2018-06-12T14:08:26.845Z,10.85
2018-06-12T14:14:27.901Z,11.39
2018-06-12T14:26:11.864Z,9.73
2018-06-12T14:32:07.050Z,8.82
2018-06-12T14:38:01.858Z,10.18
2018-06-12T14:43:55.911Z,8.65
2018-06-12T14:49:53.914Z,4.68
2018-06-12T14:56:21.021Z,5.98
2018-06-12T15:01:45.923Z,6.08
2018-06-12T15:07:39.996Z,7.94
2018-06-12T15:13:31.899Z,5.32
2018-06-12T15:19:26.890Z,3.5
2018-06-12T15:25:23.970Z,5.28
2018-06-12T15:31:20.953Z,5.55
2018-06-12T15:37:11.926Z,3.3
2018-06-12T15:43:15.010Z,9.78
2018-06-12T15:49:01.924Z,5.56
2018-06-12T15:55:05.993Z,2.44
2018-06-12T16:01:09.988Z,4.68
2018-06-12T16:06:46.900Z,4.64
2018-06-12T16:12:55.948Z,2.95
2018-06-12T16:18:40.988Z,4.13
2018-06-12T16:24:42.988Z,5.85
2018-06-12T16:30:40.987Z,5.77
2018-06-12T16:36:25.053Z,4.42
2018-06-12T16:42:15.974Z,2.49
2018-06-12T16:48:30.973Z,4.01
2018-06-12T16:54:11.027Z,4.4
2018-06-12T17:00:36.082Z,3.59
2018-06-12T17:05:58.994Z,4.59
2018-06-12T17:11:55.049Z,3.37
2018-06-12T17:17:45.992Z,9.66
2018-06-12T17:23:40.964Z,13.45
2018-06-12T17:29:35.954Z,23.97
2018-06-12T17:35:30.983Z,26.32
2018-06-12T17:41:26.008Z,22.84
2018-06-12T17:47:20.995Z,14.87
2018-06-12T17:53:15.974Z,16.4
2018-06-12T17:59:18.681Z,14.36
2018-06-12T18:05:06.070Z,12.74
2018-06-12T18:11:01.033Z,7.5
2018-06-12T18:16:56.116Z,6.51
2018-06-12T18:22:51.012Z,8.83
2018-06-12T18:28:46.010Z,8.2
2018-06-12T18:34:41.015Z,9.43
2018-06-12T18:40:36.007Z,10.37
2018-06-12T18:46:31.015Z,9.02
2018-06-12T18:52:25.991Z,6.14
2018-06-12T18:58:21.019Z,8.79
2018-06-12T19:04:16.013Z,5.91
2018-06-12T19:10:11.157Z,6.87
2018-06-12T19:16:06.014Z,7.12
2018-06-12T19:22:01.085Z,8.06
2018-06-12T19:27:56.049Z,5.67
2018-06-12T19:33:51.056Z,5.89
2018-06-12T19:39:46.029Z,5.99
2018-06-12T19:45:41.071Z,5.31
2018-06-12T19:51:36.060Z,4.94
2018-06-12T19:57:31.148Z,5.62
2018-06-12T20:03:28.002Z,3.78
2018-06-12T20:09:21.078Z,4.64
2018-06-12T20:15:16.114Z,4.38
2018-06-12T20:21:11.083Z,3.05
2018-06-12T20:27:06.095Z,5.13
2018-06-12T20:33:01.077Z,4.73
2018-06-12T20:38:56.114Z,3.4
2018-06-12T20:44:51.135Z,4.93
2018-06-12T20:50:46.124Z,2.36
2018-06-12T20:56:41.107Z,5.19
2018-06-12T21:02:36.108Z,3.74
2018-06-12T21:08:31.138Z,3.46
2018-06-12T21:14:26.245Z,3.93
2018-06-12T21:20:21.136Z,4.17
2018-06-12T21:26:16.101Z,6.06
2018-06-12T21:32:11.098Z,4.03
2018-06-12T21:38:06.143Z,3.73
2018-06-12T21:44:18.971Z,2.97
2018-06-12T21:49:56.202Z,4.78
2018-06-12T21:55:51.244Z,2.94
2018-06-12T22:01:46.149Z,4.12
2018-06-12T22:07:41.247Z,3.32
2018-06-12T22:13:36.107Z,2.19
2018-06-12T22:19:31.160Z,2.67
2018-06-12T22:25:26.136Z,3.2
2018-06-12T22:31:21.242Z,4.07
2018-06-12T22:37:16.155Z,2.76
2018-06-12T22:43:11.224Z,3.78
2018-06-12T22:49:06.144Z,3.83
2018-06-12T22:55:01.147Z,3.09
2018-06-12T23:00:56.189Z,3.96
2018-06-12T23:06:51.192Z,5.44
2018-06-12T23:12:46.176Z,2.8
2018-06-12T23:18:41.209Z,3.53
2018-06-12T23:24:36.219Z,3.35
2018-06-12T23:30:31.156Z,2.19
2018-06-12T23:36:26.204Z,2.93
2018-06-12T23:42:21.153Z,3.38
2018-06-12T23:48:16.213Z,3.33
2018-06-12T23:54:11.194Z,4.07
